sensor_id;sensor_type;location;lat;lon;timestamp;P1;durP1;ratioP1;P2;durP2;ratioP2
68923;SDS011;55961;52.156;20.942;2022-08-06T00:02:10;20.73;;;13.60;;
68923;SDS011;55961;52.156;20.942;2022-08-06T00:04:36;18.23;;;12.02;;
68923;SDS011;55961;52.156;20.942;2022-08-06T00:07:02;17.90;;;12.10;;
68923;SDS011;55961;52.156;20.942;2022-08-06T00:09:28;17.02;;;11.40;;
68923;SDS011;55961;52.156;20.942;2022-08-06T00:11:58;22.73;;;12.05;;
68923;SDS011;55961;52.156;20.942;2022-08-06T00:14:26;15.02;;;11.20;;
68923;SDS011;55961;52.156;20.942;2022-08-06T00:16:53;15.10;;;11.37;;
68923;SDS011;55961;52.156;20.942;2022-08-06T00:19:19;16.25;;;12.68;;
68923;SDS011;55961;52.156;20.942;2022-08-06T00:21:45;16.73;;;12.02;;
68923;SDS011;55961;52.156;20.942;2022-08-06T00:24:11;19.10;;;12.13;;
68923;SDS011;55961;52.156;20.942;2022-08-06T00:26:38;15.70;;;11.83;;
68923;SDS011;55961;52.156;20.942;2022-08-06T00:29:04;17.42;;;11.50;;
68923;SDS011;55961;52.156;20.942;2022-08-06T00:31:30;16.77;;;11.75;;
68923;SDS011;55961;52.156;20.942;2022-08-06T00:33:56;14.90;;;12.20;;
68923;SDS011;55961;52.156;20.942;2022-08-06T00:36:26;21.17;;;12.05;;
68923;SDS011;55961;52.156;20.942;2022-08-06T00:38:53;14.83;;;11.73;;
68923;SDS011;55961;52.156;20.942;2022-08-06T00:41:21;17.60;;;12.30;;
68923;SDS011;55961;52.156;20.942;2022-08-06T00:43:47;17.35;;;12.50;;
68923;SDS011;55961;52.156;20.942;2022-08-06T00:46:13;17.58;;;12.32;;
68923;SDS011;55961;52.156;20.942;2022-08-06T00:48:39;17.25;;;11.82;;
68923;SDS011;55961;52.156;20.942;2022-08-06T00:51:05;17.23;;;12.00;;
68923;SDS011;55961;52.156;20.942;2022-08-06T00:53:31;19.30;;;12.63;;
68923;SDS011;55961;52.156;20.942;2022-08-06T00:55:57;18.67;;;12.60;;
68923;SDS011;55961;52.156;20.942;2022-08-06T00:58:23;20.07;;;12.37;;
68923;SDS011;55961;52.156;20.942;2022-08-06T01:00:49;14.63;;;11.77;;
68923;SDS011;55961;52.156;20.942;2022-08-06T01:03:15;15.40;;;11.85;;
68923;SDS011;55961;52.156;20.942;2022-08-06T01:05:44;19.20;;;13.02;;
68923;SDS011;55961;52.156;20.942;2022-08-06T01:08:10;18.10;;;12.88;;
68923;SDS011;55961;52.156;20.942;2022-08-06T01:10:37;18.87;;;12.83;;
68923;SDS011;55961;52.156;20.942;2022-08-06T01:13:03;18.05;;;12.60;;
68923;SDS011;55961;52.156;20.942;2022-08-06T01:15:29;21.63;;;13.13;;
68923;SDS011;55961;52.156;20.942;2022-08-06T01:18:09;17.33;;;12.00;;
68923;SDS011;55961;52.156;20.942;2022-08-06T01:26:23;20.20;;;13.27;;
68923;SDS011;55961;52.156;20.942;2022-08-06T01:31:21;21.70;;;12.85;;
68923;SDS011;55961;52.156;20.942;2022-08-06T01:34:33;20.33;;;12.57;;
68923;SDS011;55961;52.156;20.942;2022-08-06T01:37:05;18.52;;;13.07;;
68923;SDS011;55961;52.156;20.942;2022-08-06T01:39:32;17.20;;;13.20;;
68923;SDS011;55961;52.156;20.942;2022-08-06T01:42:00;17.27;;;12.73;;
68923;SDS011;55961;52.156;20.942;2022-08-06T01:44:30;20.15;;;13.65;;
68923;SDS011;55961;52.156;20.942;2022-08-06T01:47:04;18.20;;;13.40;;
68923;SDS011;55961;52.156;20.942;2022-08-06T01:49:34;18.45;;;12.68;;
68923;SDS011;55961;52.156;20.942;2022-08-06T01:52:03;19.83;;;13.95;;
68923;SDS011;55961;52.156;20.942;2022-08-06T01:54:34;22.05;;;14.00;;
68923;SDS011;55961;52.156;20.942;2022-08-06T01:57:04;23.60;;;16.23;;
68923;SDS011;55961;52.156;20.942;2022-08-06T01:59:32;27.73;;;16.87;;
68923;SDS011;55961;52.156;20.942;2022-08-06T02:02:00;29.85;;;17.58;;
68923;SDS011;55961;52.156;20.942;2022-08-06T02:04:32;29.08;;;19.05;;
68923;SDS011;55961;52.156;20.942;2022-08-06T02:07:01;27.60;;;17.67;;
68923;SDS011;55961;52.156;20.942;2022-08-06T02:09:30;25.63;;;17.50;;
68923;SDS011;55961;52.156;20.942;2022-08-06T02:12:03;25.97;;;16.87;;
68923;SDS011;55961;52.156;20.942;2022-08-06T02:14:44;23.45;;;16.52;;
68923;SDS011;55961;52.156;20.942;2022-08-06T02:17:18;22.38;;;16.23;;
68923;SDS011;55961;52.156;20.942;2022-08-06T02:19:48;24.65;;;15.98;;
68923;SDS011;55961;52.156;20.942;2022-08-06T02:22:16;21.55;;;15.73;;
68923;SDS011;55961;52.156;20.942;2022-08-06T02:24:44;18.80;;;14.40;;
68923;SDS011;55961;52.156;20.942;2022-08-06T02:27:12;25.50;;;14.70;;
68923;SDS011;55961;52.156;20.942;2022-08-06T02:29:40;19.90;;;13.85;;
68923;SDS011;55961;52.156;20.942;2022-08-06T02:32:07;18.95;;;13.82;;
68923;SDS011;55961;52.156;20.942;2022-08-06T02:34:34;19.15;;;13.60;;
68923;SDS011;55961;52.156;20.942;2022-08-06T02:39:44;17.30;;;13.73;;
68923;SDS011;55961;52.156;20.942;2022-08-06T02:42:31;18.15;;;14.00;;
68923;SDS011;55961;52.156;20.942;2022-08-06T02:45:02;17.23;;;13.70;;
68923;SDS011;55961;52.156;20.942;2022-08-06T02:50:24;17.57;;;13.60;;
68923;SDS011;55961;52.156;20.942;2022-08-06T02:52:59;22.15;;;14.00;;
68923;SDS011;55961;52.156;20.942;2022-08-06T02:55:30;19.20;;;14.30;;
68923;SDS011;55961;52.156;20.942;2022-08-06T02:58:07;22.05;;;14.85;;
68923;SDS011;55961;52.156;20.942;2022-08-06T03:00:36;20.58;;;14.00;;
68923;SDS011;55961;52.156;20.942;2022-08-06T03:03:04;18.27;;;13.67;;
68923;SDS011;55961;52.156;20.942;2022-08-06T03:05:32;20.75;;;13.75;;
68923;SDS011;55961;52.156;20.942;2022-08-06T03:07:59;24.35;;;13.70;;
68923;SDS011;55961;52.156;20.942;2022-08-06T03:10:28;23.73;;;14.43;;
68923;SDS011;55961;52.156;20.942;2022-08-06T03:12:56;19.02;;;13.45;;
68923;SDS011;55961;52.156;20.942;2022-08-06T03:15:24;20.30;;;13.77;;
68923;SDS011;55961;52.156;20.942;2022-08-06T03:17:51;17.38;;;14.02;;
68923;SDS011;55961;52.156;20.942;2022-08-06T03:20:23;20.08;;;13.77;;
68923;SDS011;55961;52.156;20.942;2022-08-06T03:22:50;18.48;;;13.65;;
68923;SDS011;55961;52.156;20.942;2022-08-06T03:25:18;19.63;;;13.45;;
68923;SDS011;55961;52.156;20.942;2022-08-06T03:27:44;19.47;;;13.50;;
68923;SDS011;55961;52.156;20.942;2022-08-06T03:30:13;17.52;;;13.20;;
68923;SDS011;55961;52.156;20.942;2022-08-06T03:32:40;21.05;;;13.80;;
68923;SDS011;55961;52.156;20.942;2022-08-06T03:35:07;19.17;;;13.25;;
68923;SDS011;55961;52.156;20.942;2022-08-06T03:37:33;20.25;;;13.70;;
68923;SDS011;55961;52.156;20.942;2022-08-06T03:40:00;19.87;;;13.90;;
68923;SDS011;55961;52.156;20.942;2022-08-06T03:42:28;21.35;;;13.75;;
68923;SDS011;55961;52.156;20.942;2022-08-06T03:44:54;19.80;;;13.85;;
68923;SDS011;55961;52.156;20.942;2022-08-06T03:47:27;17.13;;;13.77;;
68923;SDS011;55961;52.156;20.942;2022-08-06T03:50:04;16.57;;;13.00;;
68923;SDS011;55961;52.156;20.942;2022-08-06T03:52:38;17.25;;;12.55;;
68923;SDS011;55961;52.156;20.942;2022-08-06T03:55:07;15.70;;;12.75;;
68923;SDS011;55961;52.156;20.942;2022-08-06T03:57:39;18.08;;;12.30;;
68923;SDS011;55961;52.156;20.942;2022-08-06T04:00:07;18.20;;;12.50;;
68923;SDS011;55961;52.156;20.942;2022-08-06T04:02:38;16.53;;;11.97;;
68923;SDS011;55961;52.156;20.942;2022-08-06T04:05:08;19.20;;;12.30;;
68923;SDS011;55961;52.156;20.942;2022-08-06T04:07:36;18.08;;;12.38;;
68923;SDS011;55961;52.156;20.942;2022-08-06T04:10:03;17.38;;;12.07;;
68923;SDS011;55961;52.156;20.942;2022-08-06T04:12:29;16.30;;;12.52;;
68923;SDS011;55961;52.156;20.942;2022-08-06T04:14:57;17.30;;;12.17;;
68923;SDS011;55961;52.156;20.942;2022-08-06T04:17:24;19.50;;;12.18;;
68923;SDS011;55961;52.156;20.942;2022-08-06T04:19:52;25.40;;;12.85;;
68923;SDS011;55961;52.156;20.942;2022-08-06T04:22:19;18.98;;;12.55;;
68923;SDS011;55961;52.156;20.942;2022-08-06T04:24:45;18.33;;;12.02;;
68923;SDS011;55961;52.156;20.942;2022-08-06T04:27:12;20.03;;;12.40;;
68923;SDS011;55961;52.156;20.942;2022-08-06T04:29:39;18.15;;;12.50;;
68923;SDS011;55961;52.156;20.942;2022-08-06T04:32:06;18.08;;;12.73;;
68923;SDS011;55961;52.156;20.942;2022-08-06T04:34:33;16.42;;;12.18;;
68923;SDS011;55961;52.156;20.942;2022-08-06T04:37:01;16.60;;;11.00;;
68923;SDS011;55961;52.156;20.942;2022-08-06T04:39:28;15.90;;;11.70;;
68923;SDS011;55961;52.156;20.942;2022-08-06T04:41:55;16.52;;;11.68;;
68923;SDS011;55961;52.156;20.942;2022-08-06T04:44:21;16.45;;;11.68;;
68923;SDS011;55961;52.156;20.942;2022-08-06T04:46:47;17.70;;;11.02;;
68923;SDS011;55961;52.156;20.942;2022-08-06T04:49:15;16.27;;;12.20;;
68923;SDS011;55961;52.156;20.942;2022-08-06T04:51:45;15.20;;;10.90;;
68923;SDS011;55961;52.156;20.942;2022-08-06T04:54:12;15.13;;;10.70;;
68923;SDS011;55961;52.156;20.942;2022-08-06T04:56:39;15.68;;;11.68;;
68923;SDS011;55961;52.156;20.942;2022-08-06T04:59:06;18.33;;;10.43;;
68923;SDS011;55961;52.156;20.942;2022-08-06T05:01:32;14.82;;;9.90;;
68923;SDS011;55961;52.156;20.942;2022-08-06T05:03:57;12.97;;;10.23;;
68923;SDS011;55961;52.156;20.942;2022-08-06T05:09:22;12.30;;;8.90;;
68923;SDS011;55961;52.156;20.942;2022-08-06T05:11:52;12.97;;;9.47;;
68923;SDS011;55961;52.156;20.942;2022-08-06T05:17:42;11.73;;;7.43;;
68923;SDS011;55961;52.156;20.942;2022-08-06T05:20:13;13.15;;;8.25;;
68923;SDS011;55961;52.156;20.942;2022-08-06T05:22:49;13.48;;;8.50;;
68923;SDS011;55961;52.156;20.942;2022-08-06T05:25:18;9.80;;;7.07;;
68923;SDS011;55961;52.156;20.942;2022-08-06T05:27:44;9.27;;;7.25;;
68923;SDS011;55961;52.156;20.942;2022-08-06T05:30:10;9.65;;;7.78;;
68923;SDS011;55961;52.156;20.942;2022-08-06T05:32:45;11.18;;;7.43;;
68923;SDS011;55961;52.156;20.942;2022-08-06T05:35:15;13.48;;;8.00;;
68923;SDS011;55961;52.156;20.942;2022-08-06T05:37:41;9.37;;;7.73;;
68923;SDS011;55961;52.156;20.942;2022-08-06T05:40:07;11.40;;;6.93;;
68923;SDS011;55961;52.156;20.942;2022-08-06T05:42:34;9.80;;;7.63;;
68923;SDS011;55961;52.156;20.942;2022-08-06T05:45:00;13.90;;;8.20;;
68923;SDS011;55961;52.156;20.942;2022-08-06T05:47:28;11.40;;;7.13;;
68923;SDS011;55961;52.156;20.942;2022-08-06T05:50:04;14.82;;;8.27;;
68923;SDS011;55961;52.156;20.942;2022-08-06T05:53:17;9.48;;;7.50;;
68923;SDS011;55961;52.156;20.942;2022-08-06T05:58:23;9.98;;;7.53;;
68923;SDS011;55961;52.156;20.942;2022-08-06T06:01:02;12.10;;;8.03;;
68923;SDS011;55961;52.156;20.942;2022-08-06T06:03:30;11.85;;;7.85;;
68923;SDS011;55961;52.156;20.942;2022-08-06T06:05:58;10.50;;;7.93;;
68923;SDS011;55961;52.156;20.942;2022-08-06T06:08:25;11.48;;;8.32;;
68923;SDS011;55961;52.156;20.942;2022-08-06T06:10:51;12.35;;;7.60;;
68923;SDS011;55961;52.156;20.942;2022-08-06T06:13:19;11.43;;;7.63;;
68923;SDS011;55961;52.156;20.942;2022-08-06T06:15:48;12.30;;;7.85;;
68923;SDS011;55961;52.156;20.942;2022-08-06T06:18:30;11.00;;;7.57;;
68923;SDS011;55961;52.156;20.942;2022-08-06T06:21:12;10.95;;;7.10;;
68923;SDS011;55961;52.156;20.942;2022-08-06T06:23:48;12.05;;;8.02;;
68923;SDS011;55961;52.156;20.942;2022-08-06T06:29:11;11.98;;;8.23;;
68923;SDS011;55961;52.156;20.942;2022-08-06T06:32:05;12.18;;;7.93;;
68923;SDS011;55961;52.156;20.942;2022-08-06T06:34:42;12.07;;;8.07;;
68923;SDS011;55961;52.156;20.942;2022-08-06T06:43:29;10.60;;;7.60;;
68923;SDS011;55961;52.156;20.942;2022-08-06T06:46:00;11.23;;;7.70;;
68923;SDS011;55961;52.156;20.942;2022-08-06T06:51:19;11.10;;;7.28;;
68923;SDS011;55961;52.156;20.942;2022-08-06T06:54:04;11.03;;;7.33;;
68923;SDS011;55961;52.156;20.942;2022-08-06T06:56:39;8.98;;;7.00;;
68923;SDS011;55961;52.156;20.942;2022-08-06T06:59:23;10.63;;;7.10;;
68923;SDS011;55961;52.156;20.942;2022-08-06T07:01:56;10.80;;;6.95;;
68923;SDS011;55961;52.156;20.942;2022-08-06T07:04:24;8.98;;;6.35;;
68923;SDS011;55961;52.156;20.942;2022-08-06T07:06:52;10.97;;;5.97;;
68923;SDS011;55961;52.156;20.942;2022-08-06T07:09:21;12.30;;;6.45;;
68923;SDS011;55961;52.156;20.942;2022-08-06T07:11:50;9.98;;;6.93;;
68923;SDS011;55961;52.156;20.942;2022-08-06T07:14:20;9.30;;;6.10;;
68923;SDS011;55961;52.156;20.942;2022-08-06T07:16:47;9.48;;;6.38;;
68923;SDS011;55961;52.156;20.942;2022-08-06T07:19:15;8.37;;;5.53;;
68923;SDS011;55961;52.156;20.942;2022-08-06T07:21:43;9.25;;;6.50;;
68923;SDS011;55961;52.156;20.942;2022-08-06T07:24:11;11.65;;;6.80;;
68923;SDS011;55961;52.156;20.942;2022-08-06T07:26:38;10.57;;;7.03;;
68923;SDS011;55961;52.156;20.942;2022-08-06T07:29:07;11.13;;;6.43;;
68923;SDS011;55961;52.156;20.942;2022-08-06T07:31:35;10.63;;;7.20;;
68923;SDS011;55961;52.156;20.942;2022-08-06T07:34:04;13.23;;;7.30;;
68923;SDS011;55961;52.156;20.942;2022-08-06T07:36:31;10.45;;;6.22;;
68923;SDS011;55961;52.156;20.942;2022-08-06T07:39:01;11.95;;;6.45;;
68923;SDS011;55961;52.156;20.942;2022-08-06T07:42:19;9.57;;;6.18;;
68923;SDS011;55961;52.156;20.942;2022-08-06T07:45:10;9.10;;;6.30;;
68923;SDS011;55961;52.156;20.942;2022-08-06T07:47:39;9.43;;;5.18;;
68923;SDS011;55961;52.156;20.942;2022-08-06T07:50:09;10.90;;;5.55;;
68923;SDS011;55961;52.156;20.942;2022-08-06T07:52:41;14.63;;;6.35;;
68923;SDS011;55961;52.156;20.942;2022-08-06T07:55:09;14.27;;;6.28;;
68923;SDS011;55961;52.156;20.942;2022-08-06T07:57:36;12.63;;;6.40;;
68923;SDS011;55961;52.156;20.942;2022-08-06T08:00:03;9.52;;;5.40;;
68923;SDS011;55961;52.156;20.942;2022-08-06T08:02:30;8.85;;;5.32;;
68923;SDS011;55961;52.156;20.942;2022-08-06T08:04:56;9.90;;;5.43;;
68923;SDS011;55961;52.156;20.942;2022-08-06T08:07:41;7.70;;;4.82;;
68923;SDS011;55961;52.156;20.942;2022-08-06T08:10:08;8.73;;;5.30;;
68923;SDS011;55961;52.156;20.942;2022-08-06T08:12:34;8.35;;;4.50;;
68923;SDS011;55961;52.156;20.942;2022-08-06T08:15:03;8.20;;;4.90;;
68923;SDS011;55961;52.156;20.942;2022-08-06T08:17:30;9.68;;;5.22;;
68923;SDS011;55961;52.156;20.942;2022-08-06T08:20:00;8.55;;;3.60;;
68923;SDS011;55961;52.156;20.942;2022-08-06T08:22:29;8.47;;;3.43;;
68923;SDS011;55961;52.156;20.942;2022-08-06T08:24:55;6.30;;;3.55;;
68923;SDS011;55961;52.156;20.942;2022-08-06T08:27:21;6.55;;;3.50;;
68923;SDS011;55961;52.156;20.942;2022-08-06T08:29:47;7.60;;;3.80;;
68923;SDS011;55961;52.156;20.942;2022-08-06T08:32:12;7.13;;;3.67;;
68923;SDS011;55961;52.156;20.942;2022-08-06T08:34:38;5.22;;;2.88;;
68923;SDS011;55961;52.156;20.942;2022-08-06T08:37:04;8.23;;;3.40;;
68923;SDS011;55961;52.156;20.942;2022-08-06T08:39:30;5.05;;;2.60;;
68923;SDS011;55961;52.156;20.942;2022-08-06T08:44:34;7.18;;;3.50;;
68923;SDS011;55961;52.156;20.942;2022-08-06T08:47:01;6.63;;;3.93;;
68923;SDS011;55961;52.156;20.942;2022-08-06T08:49:32;10.70;;;3.38;;
68923;SDS011;55961;52.156;20.942;2022-08-06T08:52:08;10.27;;;4.30;;
68923;SDS011;55961;52.156;20.942;2022-08-06T08:54:37;10.82;;;3.75;;
68923;SDS011;55961;52.156;20.942;2022-08-06T08:57:06;6.72;;;3.28;;
68923;SDS011;55961;52.156;20.942;2022-08-06T08:59:36;6.63;;;3.40;;
68923;SDS011;55961;52.156;20.942;2022-08-06T09:02:04;10.23;;;3.28;;
68923;SDS011;55961;52.156;20.942;2022-08-06T09:04:31;7.78;;;3.53;;
68923;SDS011;55961;52.156;20.942;2022-08-06T09:06:57;6.35;;;3.45;;
68923;SDS011;55961;52.156;20.942;2022-08-06T09:09:23;6.43;;;3.10;;
68923;SDS011;55961;52.156;20.942;2022-08-06T09:11:51;8.23;;;2.67;;
68923;SDS011;55961;52.156;20.942;2022-08-06T09:14:17;5.70;;;2.25;;
68923;SDS011;55961;52.156;20.942;2022-08-06T09:16:46;7.95;;;2.90;;
68923;SDS011;55961;52.156;20.942;2022-08-06T09:19:12;7.93;;;3.00;;
68923;SDS011;55961;52.156;20.942;2022-08-06T09:21:38;8.07;;;2.58;;
68923;SDS011;55961;52.156;20.942;2022-08-06T09:24:04;6.17;;;2.90;;
68923;SDS011;55961;52.156;20.942;2022-08-06T09:26:30;5.68;;;2.83;;
68923;SDS011;55961;52.156;20.942;2022-08-06T09:28:59;5.72;;;3.10;;
68923;SDS011;55961;52.156;20.942;2022-08-06T09:31:25;5.35;;;2.95;;
68923;SDS011;55961;52.156;20.942;2022-08-06T09:34:02;5.80;;;2.80;;
68923;SDS011;55961;52.156;20.942;2022-08-06T09:36:51;6.03;;;2.45;;
68923;SDS011;55961;52.156;20.942;2022-08-06T09:39:17;5.70;;;3.05;;
68923;SDS011;55961;52.156;20.942;2022-08-06T09:42:06;7.80;;;2.67;;
68923;SDS011;55961;52.156;20.942;2022-08-06T09:44:33;5.30;;;2.72;;
68923;SDS011;55961;52.156;20.942;2022-08-06T09:47:02;4.97;;;2.10;;
68923;SDS011;55961;52.156;20.942;2022-08-06T09:49:29;5.43;;;2.33;;
68923;SDS011;55961;52.156;20.942;2022-08-06T09:52:09;4.80;;;2.08;;
68923;SDS011;55961;52.156;20.942;2022-08-06T09:54:37;6.72;;;2.30;;
68923;SDS011;55961;52.156;20.942;2022-08-06T09:57:03;7.68;;;2.78;;
68923;SDS011;55961;52.156;20.942;2022-08-06T09:59:29;6.33;;;3.20;;
68923;SDS011;55961;52.156;20.942;2022-08-06T10:02:13;8.25;;;3.00;;
68923;SDS011;55961;52.156;20.942;2022-08-06T10:04:40;5.53;;;2.90;;
68923;SDS011;55961;52.156;20.942;2022-08-06T10:07:07;7.35;;;3.00;;
68923;SDS011;55961;52.156;20.942;2022-08-06T10:09:33;6.40;;;2.88;;
68923;SDS011;55961;52.156;20.942;2022-08-06T10:12:02;6.47;;;2.90;;
68923;SDS011;55961;52.156;20.942;2022-08-06T10:14:42;8.63;;;3.47;;
68923;SDS011;55961;52.156;20.942;2022-08-06T10:17:10;8.35;;;3.00;;
68923;SDS011;55961;52.156;20.942;2022-08-06T10:19:36;5.47;;;2.40;;
68923;SDS011;55961;52.156;20.942;2022-08-06T10:22:05;6.60;;;3.10;;
68923;SDS011;55961;52.156;20.942;2022-08-06T10:24:41;5.33;;;2.73;;
68923;SDS011;55961;52.156;20.942;2022-08-06T10:27:16;5.88;;;2.47;;
68923;SDS011;55961;52.156;20.942;2022-08-06T10:29:51;4.90;;;2.53;;
68923;SDS011;55961;52.156;20.942;2022-08-06T10:32:20;7.43;;;2.30;;
68923;SDS011;55961;52.156;20.942;2022-08-06T10:35:03;6.32;;;2.60;;
68923;SDS011;55961;52.156;20.942;2022-08-06T10:37:35;5.27;;;2.30;;
68923;SDS011;55961;52.156;20.942;2022-08-06T10:40:03;5.20;;;2.47;;
68923;SDS011;55961;52.156;20.942;2022-08-06T10:42:30;5.00;;;2.20;;
68923;SDS011;55961;52.156;20.942;2022-08-06T10:44:57;7.22;;;2.20;;
68923;SDS011;55961;52.156;20.942;2022-08-06T10:47:24;6.05;;;2.50;;
68923;SDS011;55961;52.156;20.942;2022-08-06T10:49:51;5.30;;;2.17;;
68923;SDS011;55961;52.156;20.942;2022-08-06T10:52:17;6.25;;;2.78;;
68923;SDS011;55961;52.156;20.942;2022-08-06T10:54:44;4.10;;;1.90;;
68923;SDS011;55961;52.156;20.942;2022-08-06T10:57:11;4.15;;;2.13;;
68923;SDS011;55961;52.156;20.942;2022-08-06T10:59:40;5.43;;;2.15;;
68923;SDS011;55961;52.156;20.942;2022-08-06T11:02:15;6.80;;;2.10;;
68923;SDS011;55961;52.156;20.942;2022-08-06T11:07:32;5.43;;;1.88;;
68923;SDS011;55961;52.156;20.942;2022-08-06T11:10:15;7.50;;;2.22;;
68923;SDS011;55961;52.156;20.942;2022-08-06T11:15:17;6.03;;;2.17;;
68923;SDS011;55961;52.156;20.942;2022-08-06T11:17:45;5.10;;;1.98;;
68923;SDS011;55961;52.156;20.942;2022-08-06T11:23:05;5.97;;;1.60;;
68923;SDS011;55961;52.156;20.942;2022-08-06T11:25:54;4.40;;;1.52;;
68923;SDS011;55961;52.156;20.942;2022-08-06T11:31:01;3.90;;;1.50;;
68923;SDS011;55961;52.156;20.942;2022-08-06T11:43:48;5.32;;;1.90;;
68923;SDS011;55961;52.156;20.942;2022-08-06T11:54:13;4.80;;;1.65;;
68923;SDS011;55961;52.156;20.942;2022-08-06T11:59:24;5.60;;;1.30;;
68923;SDS011;55961;52.156;20.942;2022-08-06T12:01:50;5.63;;;1.60;;
68923;SDS011;55961;52.156;20.942;2022-08-06T12:10:02;4.47;;;1.98;;
68923;SDS011;55961;52.156;20.942;2022-08-06T12:20:35;4.78;;;1.60;;
68923;SDS011;55961;52.156;20.942;2022-08-06T12:23:03;5.38;;;1.98;;
68923;SDS011;55961;52.156;20.942;2022-08-06T12:28:01;5.65;;;2.03;;
68923;SDS011;55961;52.156;20.942;2022-08-06T12:30:42;6.47;;;2.93;;
68923;SDS011;55961;52.156;20.942;2022-08-06T12:33:16;6.32;;;3.05;;
68923;SDS011;55961;52.156;20.942;2022-08-06T12:35:50;9.02;;;3.10;;
68923;SDS011;55961;52.156;20.942;2022-08-06T12:38:22;6.65;;;2.28;;
68923;SDS011;55961;52.156;20.942;2022-08-06T12:40:57;6.20;;;2.80;;
68923;SDS011;55961;52.156;20.942;2022-08-06T12:43:34;4.87;;;1.83;;
68923;SDS011;55961;52.156;20.942;2022-08-06T12:46:02;5.38;;;1.98;;
68923;SDS011;55961;52.156;20.942;2022-08-06T12:48:33;7.05;;;2.35;;
68923;SDS011;55961;52.156;20.942;2022-08-06T12:51:05;5.07;;;1.98;;
68923;SDS011;55961;52.156;20.942;2022-08-06T12:53:31;5.85;;;2.35;;
68923;SDS011;55961;52.156;20.942;2022-08-06T12:55:57;5.20;;;2.00;;
68923;SDS011;55961;52.156;20.942;2022-08-06T12:58:29;11.10;;;2.72;;
68923;SDS011;55961;52.156;20.942;2022-08-06T13:00:58;6.72;;;2.70;;
68923;SDS011;55961;52.156;20.942;2022-08-06T13:03:26;7.15;;;3.00;;
68923;SDS011;55961;52.156;20.942;2022-08-06T13:05:55;7.78;;;2.40;;
68923;SDS011;55961;52.156;20.942;2022-08-06T13:08:23;5.60;;;2.50;;
68923;SDS011;55961;52.156;20.942;2022-08-06T13:10:51;5.60;;;2.50;;
68923;SDS011;55961;52.156;20.942;2022-08-06T13:13:19;4.78;;;2.40;;
68923;SDS011;55961;52.156;20.942;2022-08-06T13:16:02;5.28;;;2.10;;
68923;SDS011;55961;52.156;20.942;2022-08-06T13:18:33;4.10;;;2.13;;
68923;SDS011;55961;52.156;20.942;2022-08-06T13:20:59;5.40;;;2.00;;
68923;SDS011;55961;52.156;20.942;2022-08-06T13:23:33;5.22;;;2.20;;
68923;SDS011;55961;52.156;20.942;2022-08-06T13:26:14;6.18;;;2.10;;
68923;SDS011;55961;52.156;20.942;2022-08-06T13:29:07;5.70;;;2.30;;
68923;SDS011;55961;52.156;20.942;2022-08-06T13:31:34;6.07;;;2.35;;
68923;SDS011;55961;52.156;20.942;2022-08-06T13:34:05;4.27;;;2.00;;
68923;SDS011;55961;52.156;20.942;2022-08-06T13:36:35;6.20;;;1.60;;
68923;SDS011;55961;52.156;20.942;2022-08-06T13:42:13;6.68;;;1.63;;
68923;SDS011;55961;52.156;20.942;2022-08-06T13:44:39;3.43;;;1.27;;
68923;SDS011;55961;52.156;20.942;2022-08-06T13:47:07;4.30;;;1.30;;
68923;SDS011;55961;52.156;20.942;2022-08-06T13:49:35;4.30;;;1.40;;
68923;SDS011;55961;52.156;20.942;2022-08-06T13:52:01;4.07;;;1.48;;
68923;SDS011;55961;52.156;20.942;2022-08-06T13:54:28;5.20;;;1.42;;
68923;SDS011;55961;52.156;20.942;2022-08-06T13:56:55;7.53;;;2.10;;
68923;SDS011;55961;52.156;20.942;2022-08-06T13:59:22;3.88;;;1.60;;
68923;SDS011;55961;52.156;20.942;2022-08-06T14:01:49;6.28;;;1.35;;
68923;SDS011;55961;52.156;20.942;2022-08-06T14:04:17;4.78;;;1.63;;
68923;SDS011;55961;52.156;20.942;2022-08-06T14:06:47;6.72;;;1.95;;
68923;SDS011;55961;52.156;20.942;2022-08-06T14:09:15;4.30;;;2.20;;
68923;SDS011;55961;52.156;20.942;2022-08-06T14:11:43;4.82;;;1.70;;
68923;SDS011;55961;52.156;20.942;2022-08-06T14:14:09;4.50;;;1.65;;
68923;SDS011;55961;52.156;20.942;2022-08-06T14:16:35;4.18;;;1.80;;
68923;SDS011;55961;52.156;20.942;2022-08-06T14:19:01;5.67;;;1.67;;
68923;SDS011;55961;52.156;20.942;2022-08-06T14:21:27;5.55;;;1.45;;
68923;SDS011;55961;52.156;20.942;2022-08-06T14:23:53;5.55;;;1.98;;
68923;SDS011;55961;52.156;20.942;2022-08-06T14:26:19;4.03;;;1.60;;
68923;SDS011;55961;52.156;20.942;2022-08-06T14:28:44;4.18;;;1.25;;
68923;SDS011;55961;52.156;20.942;2022-08-06T14:31:10;6.97;;;1.70;;
68923;SDS011;55961;52.156;20.942;2022-08-06T14:33:36;4.90;;;1.30;;
68923;SDS011;55961;52.156;20.942;2022-08-06T14:36:02;6.22;;;1.77;;
68923;SDS011;55961;52.156;20.942;2022-08-06T14:38:29;4.22;;;1.20;;
68923;SDS011;55961;52.156;20.942;2022-08-06T14:41:08;4.07;;;1.00;;
68923;SDS011;55961;52.156;20.942;2022-08-06T14:43:52;5.78;;;1.45;;
68923;SDS011;55961;52.156;20.942;2022-08-06T14:47:00;5.93;;;1.33;;
68923;SDS011;55961;52.156;20.942;2022-08-06T14:49:26;3.28;;;1.23;;
68923;SDS011;55961;52.156;20.942;2022-08-06T14:51:52;6.87;;;1.37;;
68923;SDS011;55961;52.156;20.942;2022-08-06T14:54:18;4.40;;;1.02;;
68923;SDS011;55961;52.156;20.942;2022-08-06T14:56:45;5.60;;;2.17;;
68923;SDS011;55961;52.156;20.942;2022-08-06T14:59:12;5.80;;;3.03;;
68923;SDS011;55961;52.156;20.942;2022-08-06T15:01:39;4.57;;;1.00;;
68923;SDS011;55961;52.156;20.942;2022-08-06T15:04:04;3.27;;;0.83;;
68923;SDS011;55961;52.156;20.942;2022-08-06T15:06:31;3.90;;;1.00;;
68923;SDS011;55961;52.156;20.942;2022-08-06T15:08:57;4.32;;;1.05;;
68923;SDS011;55961;52.156;20.942;2022-08-06T15:11:23;4.50;;;1.17;;
68923;SDS011;55961;52.156;20.942;2022-08-06T15:13:48;2.25;;;0.65;;
68923;SDS011;55961;52.156;20.942;2022-08-06T15:16:14;3.72;;;1.10;;
68923;SDS011;55961;52.156;20.942;2022-08-06T15:18:40;2.67;;;0.90;;
68923;SDS011;55961;52.156;20.942;2022-08-06T15:21:07;5.10;;;1.17;;
68923;SDS011;55961;52.156;20.942;2022-08-06T15:23:34;5.00;;;1.42;;
68923;SDS011;55961;52.156;20.942;2022-08-06T15:26:00;3.63;;;0.93;;
68923;SDS011;55961;52.156;20.942;2022-08-06T15:28:27;7.82;;;1.33;;
68923;SDS011;55961;52.156;20.942;2022-08-06T15:30:53;4.38;;;1.10;;
68923;SDS011;55961;52.156;20.942;2022-08-06T15:33:18;4.03;;;1.48;;
68923;SDS011;55961;52.156;20.942;2022-08-06T15:35:44;3.70;;;0.90;;
68923;SDS011;55961;52.156;20.942;2022-08-06T15:38:11;3.50;;;1.20;;
68923;SDS011;55961;52.156;20.942;2022-08-06T15:40:37;4.30;;;1.27;;
68923;SDS011;55961;52.156;20.942;2022-08-06T15:43:03;3.28;;;1.08;;
68923;SDS011;55961;52.156;20.942;2022-08-06T15:45:29;5.43;;;1.47;;
68923;SDS011;55961;52.156;20.942;2022-08-06T15:47:55;4.30;;;1.52;;
68923;SDS011;55961;52.156;20.942;2022-08-06T15:50:23;5.75;;;1.20;;
68923;SDS011;55961;52.156;20.942;2022-08-06T15:52:50;6.57;;;2.00;;
68923;SDS011;55961;52.156;20.942;2022-08-06T15:55:16;4.67;;;1.10;;
68923;SDS011;55961;52.156;20.942;2022-08-06T15:57:43;5.20;;;1.27;;
68923;SDS011;55961;52.156;20.942;2022-08-06T16:00:10;4.38;;;1.00;;
68923;SDS011;55961;52.156;20.942;2022-08-06T16:02:36;4.20;;;0.93;;
68923;SDS011;55961;52.156;20.942;2022-08-06T16:05:02;3.40;;;0.93;;
68923;SDS011;55961;52.156;20.942;2022-08-06T16:07:29;4.03;;;1.05;;